Time;durP1;ratioP1;P1;durP2;ratioP2;P2;SDS_P1;SDS_P2;PMS_P1;PMS_P2;Temp;Humidity;BMP_temperature;BMP_pressure;BME280_temperature;BME280_humidity;BME280_pressure;Samples;Min_cycle;Max_cycle;Signal;HPM_P1;HPM_P2
2022/09/21 00:00:13;;;;;;;6.07;2.75;;;;;;;9.54;57.39;95622.72;5025287;28;20035;-87
2022/09/21 00:02:39;;;;;;;6.30;3.17;;;;;;;9.57;57.75;95622.38;5024027;28;20025;-86
2022/09/21 00:05:05;;;;;;;4.45;2.70;;;;;;;9.58;57.04;95620.50;5025350;28;20076;-87
2022/09/21 00:07:30;;;;;;;3.58;2.55;;;;;;;9.63;56.81;95618.19;5023961;28;20033;-87
2022/09/21 00:09:57;;;;;;;7.45;2.75;;;;;;;9.61;56.94;95623.72;5023683;28;20029;-85
2022/09/21 00:12:23;;;;;;;4.72;2.65;;;;;;;9.51;57.28;95613.16;5025745;28;20104;-87
2022/09/21 00:14:49;;;;;;;3.28;2.63;;;;;;;9.56;57.46;95615.31;5023429;28;20032;-87
2022/09/21 00:17:14;;;;;;;4.35;2.88;;;;;;;9.52;57.46;95609.50;5023586;28;20033;-87
2022/09/21 00:19:40;;;;;;;4.05;2.85;;;;;;;9.44;58.47;95622.88;4990510;28;20401;-87
2022/09/21 00:22:06;;;;;;;7.05;3.08;;;;;;;9.48;58.43;95624.19;4991571;28;20017;-87
2022/09/21 00:24:32;;;;;;;4.75;2.72;;;;;;;9.50;58.12;95627.56;5025552;28;20052;-87
2022/09/21 00:26:57;;;;;;;4.45;3.08;;;;;;;9.45;58.02;95618.31;5026904;28;20038;-87
2022/09/21 00:29:23;;;;;;;6.15;3.15;;;;;;;9.38;57.98;95619.00;5010927;28;20042;-86
2022/09/21 00:31:48;;;;;;;5.43;3.15;;;;;;;9.39;57.78;95612.66;5026457;28;20021;-86
2022/09/21 00:34:14;;;;;;;4.88;2.90;;;;;;;9.36;57.65;95625.53;5028779;28;20037;-86
2022/09/21 00:36:39;;;;;;;3.60;2.72;;;;;;;9.31;58.05;95617.13;5027868;28;20061;-86
2022/09/21 00:39:04;;;;;;;5.22;2.88;;;;;;;9.30;58.62;95615.47;5028441;28;20083;-87
2022/09/21 00:41:31;;;;;;;4.75;2.90;;;;;;;9.25;58.06;95611.44;5010215;28;20026;-87
2022/09/21 00:44:14;;;;;;;6.95;2.80;;;;;;;9.23;57.39;95616.13;4993693;28;20106;-86
2022/09/21 00:46:40;;;;;;;4.53;3.10;;;;;;;9.25;57.50;95621.31;5028215;28;20022;-86
2022/09/21 00:49:06;;;;;;;4.68;2.80;;;;;;;9.23;57.35;95616.13;5009926;28;20036;-87
2022/09/21 00:51:31;;;;;;;5.25;3.03;;;;;;;9.18;57.54;95613.09;5027307;28;20044;-87
2022/09/21 00:54:03;;;;;;;5.93;3.30;;;;;;;9.13;57.41;95612.75;5030223;28;20506;-86
2022/09/21 00:56:28;;;;;;;3.95;2.60;;;;;;;9.07;57.43;95610.72;5013389;28;20476;-86
2022/09/21 00:58:54;;;;;;;5.72;2.53;;;;;;;9.06;58.21;95620.59;5010898;28;20029;-87
2022/09/21 01:01:19;;;;;;;4.20;2.80;;;;;;;9.05;57.54;95618.91;5010049;28;20512;-87
2022/09/21 01:03:45;;;;;;;4.22;2.67;;;;;;;9.06;56.42;95619.78;5027551;28;20057;-86
2022/09/21 01:06:12;;;;;;;5.47;2.83;;;;;;;9.05;57.83;95610.91;5009812;28;20029;-87
2022/09/21 01:08:38;;;;;;;3.78;2.80;;;;;;;9.08;58.17;95612.41;5010359;28;20029;-86
2022/09/21 01:11:29;;;;;;;5.35;2.80;;;;;;;9.08;58.45;95618.59;5009349;28;20041;-87
2022/09/21 01:14:00;;;;;;;4.15;2.80;;;;;;;9.08;58.71;95610.56;5010165;28;20417;-86
2022/09/21 01:16:44;;;;;;;6.25;3.20;;;;;;;9.10;58.92;95610.41;5028494;28;20032;-87
2022/09/21 01:19:25;;;;;;;3.92;2.95;;;;;;;9.13;57.99;95610.06;5011693;28;20029;-86
2022/09/21 01:22:14;;;;;;;5.57;3.20;;;;;;;9.16;58.36;95609.75;4995413;28;20037;-86
2022/09/21 01:24:39;;;;;;;4.45;2.50;;;;;;;9.15;58.29;95602.72;5023088;28;20044;-86
2022/09/21 01:27:24;;;;;;;4.20;3.00;;;;;;;9.14;57.30;95596.53;5027524;28;20033;-87
2022/09/21 01:29:56;;;;;;;4.15;2.83;;;;;;;9.11;56.61;95593.34;5028119;28;20499;-87
2022/09/21 01:32:27;;;;;;;3.42;2.55;;;;;;;9.08;57.00;95588.31;4994372;28;20420;-86
2022/09/21 01:35:06;;;;;;;5.07;2.92;;;;;;;9.00;58.32;95590.00;5012024;28;20034;-89
2022/09/21 01:37:37;;;;;;;4.43;3.10;;;;;;;8.99;58.09;95585.66;5025997;28;20030;-87
2022/09/21 01:40:07;;;;;;;4.25;2.83;;;;;;;8.95;57.71;95586.97;5009598;28;20274;-87
2022/09/21 01:42:32;;;;;;;8.43;2.97;;;;;;;8.94;57.24;95587.13;5009907;28;20086;-87
2022/09/21 01:44:58;;;;;;;4.65;2.90;;;;;;;8.92;58.20;95584.59;5009116;28;20026;-87
2022/09/21 01:47:24;;;;;;;4.85;3.20;;;;;;;8.92;58.90;95594.47;4993778;28;20025;-86
2022/09/21 01:49:52;;;;;;;5.30;3.03;;;;;;;8.91;58.83;95585.63;5009096;28;20036;-88
2022/09/21 01:52:24;;;;;;;5.55;3.45;;;;;;;8.94;59.33;95589.78;5009871;28;20022;-88
2022/09/21 01:54:53;;;;;;;5.00;3.10;;;;;;;8.85;59.67;95596.97;5009695;28;20033;-88
2022/09/21 01:57:24;;;;;;;4.13;2.88;;;;;;;8.89;59.65;95601.00;5026346;28;20033;-88
2022/09/21 01:59:52;;;;;;;4.57;2.70;;;;;;;8.89;59.37;95601.00;5027939;28;20513;-87
2022/09/21 02:02:22;;;;;;;5.85;3.65;;;;;;;8.89;59.66;95598.31;5025725;28;20452;-87
2022/09/21 02:04:47;;;;;;;5.40;3.03;;;;;;;8.86;58.23;95594.13;4993830;28;20037;-85
2022/09/21 02:07:15;;;;;;;5.30;3.00;;;;;;;8.88;57.89;95602.00;4992767;28;20033;-87
2022/09/21 02:09:42;;;;;;;4.97;2.88;;;;;;;8.86;58.11;95604.84;5010156;28;20030;-88
2022/09/21 02:12:08;;;;;;;4.90;2.92;;;;;;;8.83;58.02;95604.31;5009048;28;20125;-87
2022/09/21 02:14:34;;;;;;;11.13;5.18;;;;;;;8.78;58.85;95602.13;5027549;28;20017;-88
2022/09/21 02:17:33;;;;;;;7.03;3.95;;;;;;;8.76;58.59;95599.63;5026242;28;20034;-87
2022/09/21 02:20:17;;;;;;;7.07;4.00;;;;;;;8.71;58.17;95601.94;5026215;28;20507;-88
2022/09/21 02:23:02;;;;;;;8.23;3.13;;;;;;;8.66;58.84;95598.88;5026112;28;20052;-86
2022/09/21 02:25:36;;;;;;;6.80;3.50;;;;;;;8.66;58.65;95604.25;5025517;28;20136;-86
2022/09/21 02:28:07;;;;;;;5.35;3.50;;;;;;;8.60;58.72;95602.22;5026433;28;20037;-86
2022/09/21 02:30:32;;;;;;;5.60;3.25;;;;;;;8.56;58.39;95608.88;5026335;28;20026;-87
2022/09/21 02:33:08;;;;;;;8.02;3.20;;;;;;;8.52;58.49;95603.84;5008967;28;20037;-87
2022/09/21 02:35:50;;;;;;;5.50;3.10;;;;;;;8.50;58.76;95603.16;5028237;28;20489;-87
2022/09/21 02:38:36;;;;;;;7.75;3.63;;;;;;;8.52;58.62;95603.84;5026763;28;20025;-87
2022/09/21 02:41:21;;;;;;;7.90;3.85;;;;;;;8.54;58.30;95603.66;5026431;28;20029;-87
2022/09/21 02:44:03;;;;;;;7.05;3.50;;;;;;;8.49;57.62;95600.63;5028426;28;20077;-87
2022/09/21 02:46:35;;;;;;;6.85;3.05;;;;;;;8.40;57.64;95605.09;5025116;28;20075;-87
2022/09/21 02:49:08;;;;;;;4.60;3.33;;;;;;;8.27;58.58;95590.31;4993883;28;20025;-86
2022/09/21 02:51:50;;;;;;;4.40;3.35;;;;;;;8.35;59.46;95599.41;4994265;28;20037;-85
2022/09/21 02:54:18;;;;;;;6.55;3.20;;;;;;;8.25;59.78;95597.66;5013794;28;20041;-87
2022/09/21 02:56:43;;;;;;;4.70;3.50;;;;;;;8.21;59.95;95596.31;5010683;28;20079;-87
2022/09/21 02:59:08;;;;;;;8.48;3.42;;;;;;;8.25;60.17;95597.66;5024958;28;20033;-87
2022/09/21 03:01:34;;;;;;;8.82;3.35;;;;;;;8.28;58.95;95604.53;5009867;28;20030;-87
2022/09/21 03:03:59;;;;;;;6.25;3.00;;;;;;;8.19;58.85;95598.28;5024113;28;20026;-87
2022/09/21 03:06:25;;;;;;;5.05;2.65;;;;;;;8.23;58.50;95604.16;5027083;28;20017;-87
2022/09/21 03:08:50;;;;;;;5.93;2.72;;;;;;;8.25;59.35;95605.66;5008344;28;20030;-87
2022/09/21 03:11:17;;;;;;;3.58;2.60;;;;;;;8.25;59.89;95613.69;5026159;28;20451;-87
2022/09/21 03:13:43;;;;;;;4.75;2.60;;;;;;;8.24;59.54;95605.84;5025484;28;20017;-86
2022/09/21 03:16:08;;;;;;;3.63;2.60;;;;;;;8.27;59.80;95610.88;5026008;28;20026;-87
2022/09/21 03:18:34;;;;;;;3.28;2.38;;;;;;;8.18;60.13;95604.66;5025433;28;20060;-88
2022/09/21 03:21:01;;;;;;;3.70;2.47;;;;;;;8.10;60.73;95610.78;5024673;28;20116;-87
2022/09/21 03:23:26;;;;;;;5.47;2.90;;;;;;;8.13;58.83;95604.28;5009329;28;20099;-87
2022/09/21 03:25:51;;;;;;;4.15;3.05;;;;;;;8.13;59.18;95615.81;5024130;28;20467;-87
2022/09/21 03:28:17;;;;;;;3.75;2.65;;;;;;;8.13;59.90;95604.28;5024737;28;20468;-87
2022/09/21 03:30:43;;;;;;;6.40;2.78;;;;;;;8.15;59.92;95612.97;5007790;28;20035;-87
2022/09/21 03:33:09;;;;;;;3.80;2.55;;;;;;;8.04;59.89;95609.56;5024878;28;20088;-85
2022/09/21 03:35:34;;;;;;;3.63;2.63;;;;;;;7.94;60.61;95614.19;5024691;28;20038;-86
2022/09/21 03:37:59;;;;;;;4.70;3.08;;;;;;;7.94;60.78;95610.66;5008464;28;20136;-87
2022/09/21 03:40:26;;;;;;;4.07;3.00;;;;;;;7.97;61.08;95608.53;5025170;28;20026;-87
2022/09/21 03:42:51;;;;;;;5.80;3.60;;;;;;;7.98;60.83;95618.19;5023906;28;20420;-86
2022/09/21 03:45:17;;;;;;;6.80;3.72;;;;;;;7.96;60.67;95616.69;5009128;28;20017;-86
2022/09/21 03:47:42;;;;;;;5.15;2.67;;;;;;;8.04;60.07;95614.09;5025400;28;20111;-86
2022/09/21 03:50:08;;;;;;;6.15;2.63;;;;;;;8.07;60.10;95624.44;5024913;28;20412;-85
2022/09/21 03:52:35;;;;;;;5.15;2.67;;;;;;;8.07;60.11;95621.78;5025440;28;20034;-86
2022/09/21 03:55:02;;;;;;;4.95;3.33;;;;;;;8.07;59.98;95615.59;5025719;28;20556;-87
2022/09/21 03:57:27;;;;;;;4.78;2.95;;;;;;;8.02;60.16;95619.59;5027212;28;20069;-88
2022/09/21 03:59:53;;;;;;;6.05;3.53;;;;;;;7.94;60.71;95622.19;5029233;28;20159;-88
2022/09/21 04:02:18;;;;;;;4.30;2.78;;;;;;;7.94;60.70;95610.66;5028972;28;20029;-86
2022/09/21 04:04:43;;;;;;;4.70;2.70;;;;;;;7.84;61.00;95616.94;5027196;28;20653;-88
2022/09/21 04:07:09;;;;;;;5.22;3.40;;;;;;;7.79;61.30;95614.72;5029265;28;20389;-87
2022/09/21 04:09:34;;;;;;;8.65;3.00;;;;;;;7.91;61.38;95622.50;5028583;28;20033;-85
2022/09/21 04:12:00;;;;;;;4.82;3.40;;;;;;;7.97;60.57;95608.53;5028346;28;20033;-86
2022/09/21 04:14:26;;;;;;;5.15;3.40;;;;;;;7.99;60.59;95609.22;5027228;28;20032;-87
2022/09/21 04:16:52;;;;;;;9.60;3.67;;;;;;;7.96;60.61;95620.22;5028057;28;20021;-87
2022/09/21 04:19:17;;;;;;;6.05;3.70;;;;;;;7.99;60.97;95619.03;5030373;28;20021;-87
2022/09/21 04:21:43;;;;;;;4.90;3.40;;;;;;;8.01;60.98;95623.22;5010912;28;20029;-87
2022/09/21 04:24:08;;;;;;;7.80;3.90;;;;;;;8.04;61.02;95617.56;5015605;28;20116;-87
2022/09/21 04:26:34;;;;;;;8.43;3.47;;;;;;;8.02;60.79;95614.25;5028077;28;20367;-87
2022/09/21 04:29:00;;;;;;;10.50;4.30;;;;;;;8.05;61.20;95610.41;5029588;28;20068;-86
2022/09/21 04:31:25;;;;;;;7.30;3.85;;;;;;;8.06;60.85;95622.75;5026266;28;20112;-87
2022/09/21 04:33:52;;;;;;;9.85;3.88;;;;;;;8.01;61.18;95623.22;5027808;28;20421;-87
2022/09/21 04:36:17;;;;;;;6.75;3.85;;;;;;;8.16;60.97;95623.50;5027379;28;20425;-87
2022/09/21 04:38:43;;;;;;;8.15;4.03;;;;;;;8.24;60.08;95620.03;5012107;28;20112;-86
2022/09/21 04:41:09;;;;;;;9.77;4.22;;;;;;;8.25;60.36;95624.38;5015690;28;20043;-87
2022/09/21 04:43:34;;;;;;;8.00;5.03;;;;;;;8.36;59.96;95630.47;5027871;28;20048;-87
2022/09/21 04:46:06;;;;;;;11.05;4.10;;;;;;;8.38;59.67;95633.81;5029581;28;20038;-86
2022/09/21 04:48:32;;;;;;;4.38;3.28;;;;;;;8.44;59.97;95635.00;5026355;28;20056;-87
2022/09/21 04:50:57;;;;;;;7.70;4.00;;;;;;;8.43;60.27;95636.84;5011265;28;20420;-88
2022/09/21 04:53:23;;;;;;;11.00;3.85;;;;;;;8.44;59.99;95633.19;5009995;28;20492;-87
2022/09/21 04:55:48;;;;;;;8.15;3.38;;;;;;;8.49;60.04;95635.38;5027360;28;20029;-87
2022/09/21 04:58:13;;;;;;;5.78;4.03;;;;;;;8.58;59.84;95638.94;5028689;28;20511;-87
2022/09/21 05:00:39;;;;;;;15.38;4.30;;;;;;;8.72;59.78;95635.69;5010564;28;20017;-86
2022/09/21 05:03:04;;;;;;;9.55;4.07;;;;;;;8.66;60.52;95644.34;5028135;28;20017;-86
2022/09/21 05:05:30;;;;;;;9.15;4.50;;;;;;;8.75;59.76;95639.88;5027202;28;20476;-87
2022/09/21 05:07:56;;;;;;;8.38;4.93;;;;;;;8.76;60.37;95637.06;5027566;28;20028;-86
2022/09/21 05:10:21;;;;;;;15.05;7.25;;;;;;;8.88;60.38;95644.78;5025026;28;20059;-85
2022/09/21 05:12:47;;;;;;;10.90;6.20;;;;;;;8.96;60.25;95642.16;5027061;28;20045;-86
2022/09/21 05:15:12;;;;;;;7.78;4.80;;;;;;;8.92;59.82;95640.78;5026140;28;20083;-87
2022/09/21 05:17:39;;;;;;;7.28;4.38;;;;;;;8.95;59.80;95642.28;5027598;28;20501;-86
2022/09/21 05:20:05;;;;;;;13.77;4.80;;;;;;;8.97;59.96;95642.97;5010474;28;20518;-88
2022/09/21 05:22:31;;;;;;;28.27;5.63;;;;;;;9.01;59.70;95650.50;5025807;28;20033;-85
2022/09/21 05:24:56;;;;;;;21.23;5.53;;;;;;;9.03;59.42;95642.31;5028499;28;20052;-86
2022/09/21 05:27:21;;;;;;;30.52;6.78;;;;;;;9.02;59.56;95646.84;5026637;28;20413;-87
2022/09/21 05:29:47;;;;;;;21.85;6.30;;;;;;;9.05;59.59;95644.84;5028219;28;20045;-87
2022/09/21 05:32:23;;;;;;;21.40;6.30;;;;;;;9.06;59.46;95650.03;5027216;28;20207;-86
2022/09/21 05:35:01;;;;;;;14.70;5.38;;;;;;;9.05;59.17;95644.84;5026693;28;20078;-87
2022/09/21 05:37:50;;;;;;;10.77;4.53;;;;;;;8.90;59.40;95640.09;5026544;28;20025;-87
2022/09/21 05:40:16;;;;;;;10.07;4.13;;;;;;;8.85;58.89;95634.41;5026020;28;20045;-87
2022/09/21 05:42:42;;;;;;;11.73;3.70;;;;;;;8.80;59.81;95631.38;5027574;28;20076;-87
2022/09/21 05:45:12;;;;;;;18.98;4.40;;;;;;;8.94;59.55;95635.28;5008747;28;20086;-87
2022/09/21 05:47:55;;;;;;;15.60;4.28;;;;;;;9.05;59.76;95636.81;5010014;28;20025;-87
2022/09/21 05:50:54;;;;;;;11.38;3.58;;;;;;;9.07;59.96;95632.97;5009904;28;20071;-88
2022/09/21 05:53:32;;;;;;;11.15;3.67;;;;;;;9.14;60.06;95638.53;5011659;28;20515;-87
2022/09/21 05:55:59;;;;;;;17.90;4.95;;;;;;;9.17;59.40;95632.84;5026474;28;20021;-88
2022/09/21 05:58:58;;;;;;;20.17;5.30;;;;;;;9.17;59.69;95638.19;5009375;28;20025;-88
2022/09/21 06:01:27;;;;;;;13.73;5.63;;;;;;;9.14;59.72;95642.03;5026480;28;20508;-86
2022/09/21 06:03:53;;;;;;;20.60;8.88;;;;;;;9.21;59.70;95650.25;5026855;28;20029;-86
2022/09/21 06:06:19;;;;;;;25.55;11.20;;;;;;;9.26;60.14;95653.28;5008196;28;20038;-86
2022/09/21 06:08:44;;;;;;;18.35;10.80;;;;;;;9.38;60.02;95645.75;5026357;28;20044;-86
2022/09/21 06:11:09;;;;;;;20.27;9.30;;;;;;;9.53;60.04;95647.78;5008102;28;20022;-87
2022/09/21 06:13:36;;;;;;;22.52;7.32;;;;;;;9.62;59.02;95645.97;5025869;28;20033;-86
2022/09/21 06:16:02;;;;;;;19.70;6.80;;;;;;;9.67;58.61;95643.66;5009019;28;20033;-87
2022/09/21 06:18:27;;;;;;;11.07;5.65;;;;;;;9.77;58.95;95648.81;5025205;28;20036;-87
2022/09/21 06:20:53;;;;;;;12.85;5.78;;;;;;;9.83;59.01;95642.81;5029497;28;20021;-86
2022/09/21 06:23:18;;;;;;;10.52;4.40;;;;;;;9.89;59.38;95647.50;5011294;28;20033;-87
2022/09/21 06:25:44;;;;;;;10.05;4.78;;;;;;;10.02;59.14;95651.50;5027999;28;20030;-88
2022/09/21 06:28:11;;;;;;;13.25;6.50;;;;;;;10.08;59.31;95652.66;5007528;28;20029;-86
2022/09/21 06:30:36;;;;;;;8.35;4.80;;;;;;;10.21;59.02;95655.69;5010242;28;20049;-86
2022/09/21 06:33:02;;;;;;;8.88;4.07;;;;;;;10.31;58.94;95649.31;5025535;28;20111;-88
2022/09/21 06:35:28;;;;;;;6.65;3.42;;;;;;;10.38;59.02;95653.00;5025568;28;20447;-89
2022/09/21 06:38:03;;;;;;;8.48;4.45;;;;;;;10.46;58.81;95646.78;5027833;28;20018;-89
2022/09/21 06:40:30;;;;;;;9.63;3.67;;;;;;;10.62;58.80;95651.28;5007849;28;20087;-87
2022/09/21 06:42:59;;;;;;;7.70;4.20;;;;;;;10.67;58.75;95654.31;5026744;28;20488;-88
2022/09/21 06:45:25;;;;;;;5.20;3.50;;;;;;;10.52;58.81;95654.16;5024118;28;20044;-88
2022/09/21 06:47:51;;;;;;;7.22;3.63;;;;;;;10.56;59.35;95652.78;5010194;28;20018;-88
2022/09/21 06:50:16;;;;;;;7.95;3.80;;;;;;;10.76;58.95;95665.81;5025818;28;20022;-88
2022/09/21 06:52:41;;;;;;;8.15;3.45;;;;;;;10.87;58.81;95664.59;5026579;28;20024;-88
2022/09/21 06:55:08;;;;;;;7.00;3.15;;;;;;;11.02;58.92;95666.56;5025279;28;20370;-88
2022/09/21 06:57:34;;;;;;;6.63;3.15;;;;;;;11.12;58.80;95665.34;5009068;28;20026;-88
2022/09/21 07:00:00;;;;;;;7.30;3.45;;;;;;;11.20;58.30;95664.50;5026002;28;20086;-87
2022/09/21 07:02:25;;;;;;;5.15;3.03;;;;;;;11.22;59.49;95665.13;5025469;28;20055;-87
2022/09/21 07:08:12;;;;;;;4.03;2.80;;;;;;;11.33;58.71;95657.72;5026992;28;20048;-87
2022/09/21 07:10:38;;;;;;;4.78;2.70;;;;;;;11.22;58.59;95662.44;5024850;28;20037;-88
2022/09/21 07:13:04;;;;;;;6.88;2.95;;;;;;;11.24;59.35;95652.38;5027607;28;20029;-88
2022/09/21 07:15:30;;;;;;;5.25;3.35;;;;;;;11.33;60.04;95661.22;4990994;28;20029;-87
2022/09/21 07:17:55;;;;;;;3.42;2.70;;;;;;;11.42;59.89;95666.53;4993336;28;20039;-88
2022/09/21 07:20:21;;;;;;;7.05;3.20;;;;;;;11.48;59.59;95665.84;5027102;28;20515;-89
2022/09/21 07:22:46;;;;;;;5.35;2.95;;;;;;;11.66;59.26;95662.88;5031075;28;20095;-86
2022/09/21 07:25:12;;;;;;;6.35;2.78;;;;;;;11.65;59.37;95663.06;5011280;28;20040;-87
2022/09/21 07:27:37;;;;;;;4.82;2.88;;;;;;;11.60;59.52;95658.22;5010091;28;20654;-88
2022/09/21 07:30:04;;;;;;;8.43;2.45;;;;;;;11.61;59.64;95665.25;5011778;28;20076;-87
2022/09/21 07:32:30;;;;;;;7.43;2.75;;;;;;;11.58;59.69;95662.94;5027766;28;20029;-88
2022/09/21 07:34:55;;;;;;;4.90;2.88;;;;;;;11.66;60.05;95662.03;5033458;28;20090;-88
2022/09/21 07:37:25;;;;;;;6.22;4.20;;;;;;;11.65;60.23;95655.84;5033984;28;20037;-88
2022/09/21 07:39:51;;;;;;;6.05;2.75;;;;;;;11.78;59.77;95665.16;5034946;28;20026;-87
2022/09/21 07:42:18;;;;;;;5.30;2.35;;;;;;;11.79;59.99;95664.13;5030926;28;20602;-88
2022/09/21 07:44:45;;;;;;;3.47;2.60;;;;;;;11.58;60.60;95665.63;5016064;28;20045;-87
2022/09/21 07:47:12;;;;;;;5.88;2.78;;;;;;;11.75;59.69;95669.06;5031164;28;20017;-87
2022/09/21 07:49:37;;;;;;;5.93;2.75;;;;;;;11.72;59.50;95662.16;5029880;28;20033;-88
2022/09/21 07:52:03;;;;;;;19.30;3.97;;;;;;;11.77;59.60;95660.81;5032171;28;20048;-86
2022/09/21 07:54:28;;;;;;;3.40;2.58;;;;;;;11.75;59.50;95659.13;5012977;28;20033;-87
2022/09/21 07:59:37;;;;;;;5.45;2.85;;;;;;;11.49;59.59;95662.97;5031415;28;20132;-87
2022/09/21 08:02:03;;;;;;;9.05;3.15;;;;;;;11.53;59.65;95663.47;5031336;28;20021;-87
2022/09/21 08:04:28;;;;;;;5.65;3.15;;;;;;;11.57;59.19;95658.56;5016630;28;20492;-88
2022/09/21 08:06:54;;;;;;;4.22;2.83;;;;;;;11.67;59.35;95655.66;5031056;28;20470;-86
2022/09/21 08:09:19;;;;;;;3.78;2.80;;;;;;;11.73;59.38;95654.94;5033016;28;20021;-87
2022/09/21 08:11:45;;;;;;;3.92;2.67;;;;;;;11.87;58.90;95650.63;5030809;28;20041;-87
2022/09/21 08:14:18;;;;;;;3.25;2.63;;;;;;;12.08;58.31;95654.53;5034381;28;20025;-87
2022/09/21 08:16:43;;;;;;;2.83;1.95;;;;;;;11.88;57.24;95646.97;5030334;28;20029;-86
2022/09/21 08:19:09;;;;;;;2.90;1.92;;;;;;;11.94;56.47;95651.59;5031660;28;20029;-89
2022/09/21 08:21:34;;;;;;;2.83;1.80;;;;;;;11.82;56.21;95650.34;5030747;28;20120;-88
2022/09/21 08:24:00;;;;;;;2.90;1.75;;;;;;;11.93;56.52;95647.22;5030733;28;20022;-86
2022/09/21 08:26:26;;;;;;;2.35;1.75;;;;;;;11.96;55.85;95652.25;5031299;28;20207;-86
2022/09/21 08:28:54;;;;;;;3.78;1.90;;;;;;;11.97;55.37;95637.81;5029250;28;20508;-85
2022/09/21 08:31:20;;;;;;;2.75;1.85;;;;;;;11.72;56.28;95635.28;5014794;28;20412;-86
2022/09/21 08:33:46;;;;;;;3.92;1.75;;;;;;;11.66;55.94;95630.63;5030092;28;20094;-87
2022/09/21 08:36:12;;;;;;;3.72;1.92;;;;;;;11.78;55.21;95622.16;5031183;28;20132;-87
2022/09/21 08:38:37;;;;;;;6.35;2.47;;;;;;;11.60;54.79;95628.66;5013258;28;20034;-87
2022/09/21 08:41:22;;;;;;;3.90;1.73;;;;;;;11.72;55.42;95624.53;5030677;28;20033;-86
2022/09/21 08:43:53;;;;;;;3.10;1.70;;;;;;;11.86;54.32;95619.41;5030789;28;20101;-88
2022/09/21 08:46:23;;;;;;;2.33;1.38;;;;;;;11.92;54.91;95623.22;5024694;28;20435;-87
2022/09/21 08:49:14;;;;;;;3.95;1.95;;;;;;;12.20;53.58;95620.00;5011515;28;20040;-87
2022/09/21 08:51:50;;;;;;;2.22;1.38;;;;;;;12.34;52.86;95619.19;4993931;28;20401;-88
2022/09/21 08:54:29;;;;;;;2.28;1.30;;;;;;;12.07;52.99;95617.91;5027118;28;20029;-87
2022/09/21 08:56:55;;;;;;;2.65;1.23;;;;;;;12.30;52.40;95609.78;5012670;28;20113;-87
2022/09/21 08:59:20;;;;;;;2.20;1.50;;;;;;;12.20;53.15;95618.13;4993164;28;20025;-88
2022/09/21 09:02:17;;;;;;;4.43;1.40;;;;;;;12.23;52.58;95609.72;5029960;28;20555;-87
2022/09/21 09:05:27;;;;;;;3.08;1.42;;;;;;;12.19;52.83;95610.25;5027634;28;20026;-88
2022/09/21 09:07:58;;;;;;;2.38;1.30;;;;;;;12.36;52.66;95598.28;5027366;28;20017;-87
2022/09/21 09:10:38;;;;;;;1.77;1.10;;;;;;;12.34;52.54;95594.97;5028771;28;20045;-87
2022/09/21 09:13:09;;;;;;;2.90;1.02;;;;;;;12.39;51.08;95598.97;5009443;28;20049;-87
2022/09/21 09:15:41;;;;;;;1.80;1.13;;;;;;;12.33;52.03;95600.53;5028718;28;20257;-87
2022/09/21 09:18:10;;;;;;;2.00;1.40;;;;;;;12.58;51.94;95592.19;5028251;28;20025;-88
2022/09/21 09:20:38;;;;;;;2.83;1.40;;;;;;;12.66;52.53;95596.63;4993914;28;20080;-88
2022/09/21 09:23:14;;;;;;;2.60;1.55;;;;;;;12.68;52.64;95600.00;5027511;28;20521;-87
2022/09/21 09:25:41;;;;;;;4.20;2.00;;;;;;;13.07;51.73;95589.94;5027055;28;20049;-88
2022/09/21 09:28:39;;;;;;;2.33;1.63;;;;;;;12.97;51.62;95591.06;5011373;28;20033;-87
2022/09/21 09:31:26;;;;;;;3.78;1.70;;;;;;;12.89;50.94;95590.31;5026468;28;20057;-87
2022/09/21 09:33:58;;;;;;;3.78;1.67;;;;;;;13.04;50.68;95596.50;5010250;28;20480;-86
2022/09/21 09:36:29;;;;;;;1.95;1.30;;;;;;;12.84;50.77;95585.50;5027611;28;20028;-86
2022/09/21 09:39:04;;;;;;;2.67;1.38;;;;;;;12.67;51.33;95572.22;4992501;28;20026;-88
2022/09/21 09:41:43;;;;;;;2.10;1.63;;;;;;;12.70;50.79;95571.03;5028915;28;20076;-87
2022/09/21 09:44:30;;;;;;;3.67;1.63;;;;;;;12.84;50.08;95574.72;5011179;28;20475;-88
2022/09/21 09:47:08;;;;;;;2.50;1.50;;;;;;;13.00;49.37;95570.16;5025508;28;20032;-86
2022/09/21 09:49:36;;;;;;;2.20;1.27;;;;;;;12.97;49.30;95572.22;5027279;28;20500;-88
2022/09/21 09:52:02;;;;;;;2.00;1.25;;;;;;;12.95;48.66;95571.56;5026693;28;20045;-88
2022/09/21 09:54:28;;;;;;;2.22;1.30;;;;;;;13.03;48.30;95567.06;5027151;28;20021;-87
2022/09/21 09:56:54;;;;;;;4.45;1.23;;;;;;;13.17;48.42;95568.09;5012150;28;20132;-87
2022/09/21 09:59:34;;;;;;;1.92;1.33;;;;;;;12.95;49.92;95562.63;5028489;28;20032;-87
2022/09/21 10:02:03;;;;;;;2.67;1.30;;;;;;;13.06;49.29;95547.84;5026379;28;20056;-88
2022/09/21 10:04:29;;;;;;;2.53;1.10;;;;;;;13.17;48.50;95549.22;5026901;28;20049;-87
2022/09/21 10:06:54;;;;;;;1.77;1.30;;;;;;;13.25;47.56;95557.16;5027192;28;20509;-89
2022/09/21 10:09:27;;;;;;;3.10;1.25;;;;;;;13.41;47.69;95539.94;4992133;28;20033;-87
2022/09/21 10:11:57;;;;;;;1.80;1.05;;;;;;;13.70;47.02;95543.53;5010328;28;20079;-88
2022/09/21 10:14:23;;;;;;;2.97;1.17;;;;;;;13.89;45.86;95526.91;5025604;28;20128;-86
2022/09/21 10:16:50;;;;;;;2.97;1.27;;;;;;;13.77;46.85;95537.38;4993849;28;20052;-86
2022/09/21 10:19:21;;;;;;;1.80;1.10;;;;;;;14.04;46.52;95526.81;5009863;28;20497;-86
2022/09/21 10:21:46;;;;;;;2.63;1.00;;;;;;;13.53;46.86;95536.75;5009740;28;20052;-88
2022/09/21 10:24:14;;;;;;;1.40;0.80;;;;;;;13.46;46.88;95536.69;5026948;28;20034;-85
2022/09/21 10:26:47;;;;;;;1.83;1.05;;;;;;;13.33;47.08;95534.69;5025677;28;20029;-89
2022/09/21 10:29:22;;;;;;;1.70;0.98;;;;;;;13.48;46.14;95527.38;5010272;28;20053;-87
2022/09/21 10:32:02;;;;;;;2.80;1.27;;;;;;;13.11;47.62;95531.97;5026583;28;20030;-89
2022/09/21 10:34:31;;;;;;;2.00;0.90;;;;;;;13.16;47.40;95526.00;5008158;28;20492;-87
2022/09/21 10:37:01;;;;;;;1.88;1.13;;;;;;;13.33;46.77;95516.66;5026166;28;20052;-88
2022/09/21 10:39:28;;;;;;;2.17;0.70;;;;;;;13.27;45.71;95522.00;5023563;28;20036;-88
2022/09/21 10:41:57;;;;;;;3.20;1.10;;;;;;;13.26;44.94;95515.75;5009829;28;20037;-88
2022/09/21 10:44:25;;;;;;;1.75;0.93;;;;;;;13.27;45.03;95517.41;5025732;28;20029;-87
2022/09/21 10:46:51;;;;;;;2.63;0.75;;;;;;;13.37;45.25;95514.41;5009040;28;20112;-87
2022/09/21 10:49:26;;;;;;;2.38;0.90;;;;;;;13.48;46.28;95508.50;5024871;28;20424;-88
2022/09/21 10:51:54;;;;;;;2.58;1.10;;;;;;;13.43;45.63;95508.25;4991226;28;20033;-87
2022/09/21 10:54:28;;;;;;;4.05;1.13;;;;;;;13.36;45.33;95515.44;5008976;28;20113;-88
2022/09/21 10:57:09;;;;;;;3.55;1.25;;;;;;;13.70;45.18;95505.81;5008311;28;20105;-88
2022/09/21 10:59:35;;;;;;;3.30;1.10;;;;;;;13.90;44.05;95504.28;5009397;28;20044;-87
2022/09/21 11:02:01;;;;;;;1.52;0.98;;;;;;;14.06;43.99;95501.31;5008075;28;20128;-86
2022/09/21 11:04:39;;;;;;;1.80;0.90;;;;;;;14.28;43.67;95500.41;5008203;28;20025;-87
2022/09/21 11:07:12;;;;;;;2.35;1.00;;;;;;;14.37;43.34;95492.97;5025759;28;20025;-88
2022/09/21 11:09:59;;;;;;;3.22;1.02;;;;;;;14.33;43.27;95479.88;5023001;28;20030;-87
2022/09/21 11:12:27;;;;;;;1.58;0.85;;;;;;;14.56;43.10;95496.81;5025545;28;20040;-87
2022/09/21 11:15:07;;;;;;;4.78;0.90;;;;;;;14.59;41.68;95486.44;5025636;28;20029;-88
2022/09/21 11:17:48;;;;;;;5.05;1.15;;;;;;;14.55;41.91;95490.59;4992968;28;20436;-87
2022/09/21 11:20:20;;;;;;;3.55;1.00;;;;;;;14.64;42.39;95501.22;5009421;28;20055;-88
2022/09/21 11:23:22;;;;;;;2.63;1.20;;;;;;;15.00;41.72;95494.72;5008428;28;20026;-90
2022/09/21 11:26:11;;;;;;;3.10;1.63;;;;;;;14.92;41.29;95493.03;5026237;28;20076;-87
2022/09/21 11:28:39;;;;;;;2.40;0.90;;;;;;;14.87;39.85;95500.91;5008361;28;20022;-86
2022/09/21 11:31:42;;;;;;;2.90;1.00;;;;;;;14.51;40.95;95492.00;5023496;28;20021;-85
2022/09/21 11:34:15;;;;;;;3.83;1.38;;;;;;;14.63;44.97;95510.31;5025197;28;20190;-85
2022/09/21 11:36:54;;;;;;;11.25;1.83;;;;;;;14.78;45.62;95510.19;5025748;28;20029;-84
2022/09/21 11:39:41;;;;;;;14.40;1.88;;;;;;;14.89;45.39;95511.50;5024501;28;20041;-86
2022/09/21 11:42:13;;;;;;;4.40;0.90;;;;;;;15.18;44.83;95515.75;5026734;28;20045;-85
2022/09/21 11:44:52;;;;;;;1.40;0.70;;;;;;;15.14;44.71;95517.19;5023385;28;20068;-86
2022/09/21 11:47:30;;;;;;;1.60;0.77;;;;;;;15.44;43.82;95514.13;5010598;28;20039;-86
2022/09/21 11:50:03;;;;;;;0.77;0.50;;;;;;;15.25;43.12;95512.25;5026748;28;20417;-86
2022/09/21 11:53:13;;;;;;;2.60;0.70;;;;;;;15.16;43.64;95519.69;5007014;28;20033;-85
2022/09/21 11:55:50;;;;;;;3.67;0.70;;;;;;;15.51;43.38;95507.91;5023893;28;20038;-87